メインページ
METAR-TAF:

METAR-TAF

空港 :

インディアナポリス国際空港

インディアナポリス, インディアナ州, アメリカ合衆国

緯度: 39-43-30N, 経度: 086-16-55W, 海抜: 243m

現時点の気象観測

当レポートは20分前の23:10(UTC)に作成
南東の風 7kt
気温 21°C
湿度 100%
気圧 1014 hPa
視程: 2.4km
高度600ftの千切れ雲あり
高度1300ftの曇り
小雨, 靄

METAR: KIND 242310Z 14007KT 1 1/2SM R05L/6000VP6000FT -RA BR BKN006 OVC013 21/21 A2995 RMK AO2 TWR VIS 6 DZE09RAB09 P0000 T02110206

時間: 19:30 (23:30 UTC)

予報

当レポートは3時間11分前の20:19(UTC)に作成
予報は24日の 20時(UTC)から 25日の 24時(UTC)まで有効
南/南東の風 8kt
視程: 6.4km
高度800ftの曇り
小霧雨, 靄, 近辺でにわか雨
25日の 0100時(UTC)から
の風 7kt
視程: 6.4km
高度300ftの曇り
靄, 近辺でにわか雨
25日の 0800時(UTC)から
の風 8kt
視程: 9.7km
高度800ftの曇り, 積乱雲.
にわか雨, 近辺で激しい雷雨
25日の 1800時(UTC)から
南/南西の風 10kt
視程: 9.7km
高度1000ftの曇り
弱いにわか雨
25日の 2100時(UTC)から
の風 10kt
視程: 10km
高度2000ftの千切れ雲あり

TAF: KIND 242019Z 2420/2524 15008KT 4SM -DZ BR VCSH OVC008 FM250100 17007KT 4SM BR VCSH OVC003 FM250800 19008KT 6SM SHRA VCTS OVC008CB FM251800 20010KT 6SM -SHRA OVC010 FM252100 19010KT P6SM BKN020

4,000以上の空港の気象観測と天気予報(METAR報とTAF報)

利用可能な観測所は地図上に黄色い丸と赤い丸で示す。

丸の上にカーソルを重ねると観測所名を参照できる。

次にクリックすると気象観測と天気予報を参照できる。

マップの切り替え:黒色「×」印の緑ボタンをクリックして拡大、「-」印の緑ボタンをクリックして縮小、緑色の三角印をクリックして隣りの地図に切り替え


METAR-TAF: